createdAt,value
2023-11-23T00:01:28.365Z,18.80
2023-11-23T00:03:54.971Z,17.13
2023-11-23T00:06:21.549Z,18.52
2023-11-23T00:08:48.213Z,19.83
2023-11-23T00:11:14.801Z,19.90
2023-11-23T00:13:43.313Z,18.65
2023-11-23T00:16:10.142Z,16.80
2023-11-23T00:18:36.799Z,20.80
2023-11-23T00:21:03.787Z,20.80
2023-11-23T00:23:33.018Z,19.10
2023-11-23T00:25:59.631Z,16.92
2023-11-23T00:28:26.931Z,19.10
2023-11-23T00:30:54.931Z,20.88
2023-11-23T00:33:21.814Z,23.08
2023-11-23T00:35:48.556Z,18.50
2023-11-23T00:38:19.839Z,18.88
2023-11-23T00:40:46.390Z,24.15
2023-11-23T00:43:13.009Z,20.15
2023-11-23T00:45:39.779Z,19.92
2023-11-23T00:48:07.878Z,24.33
2023-11-23T00:50:34.530Z,23.83
2023-11-23T00:53:01.151Z,20.42
2023-11-23T00:55:28.063Z,22.35
2023-11-23T00:57:54.589Z,19.63
2023-11-23T01:00:21.449Z,21.50
2023-11-23T01:02:48.274Z,20.67
2023-11-23T01:05:16.561Z,18.83
2023-11-23T01:07:43.605Z,17.90
2023-11-23T01:10:11.302Z,19.40
2023-11-23T01:12:37.863Z,21.42
2023-11-23T01:15:05.059Z,18.33
2023-11-23T01:17:31.697Z,18.17
2023-11-23T01:19:58.317Z,20.30
2023-11-23T01:22:26.307Z,20.90
2023-11-23T01:24:53.127Z,21.05
2023-11-23T01:27:19.687Z,18.15
2023-11-23T01:29:46.269Z,16.90
2023-11-23T01:32:12.871Z,23.00
2023-11-23T01:34:39.479Z,18.77
2023-11-23T01:37:06.165Z,18.92
2023-11-23T01:39:34.100Z,21.00
2023-11-23T01:42:00.652Z,23.75
2023-11-23T01:44:27.227Z,16.13
2023-11-23T01:46:54.283Z,17.25
2023-11-23T01:49:21.383Z,21.38
2023-11-23T01:51:48.132Z,21.88
2023-11-23T01:54:14.959Z,20.63
2023-11-23T01:56:43.927Z,17.52
2023-11-23T01:59:10.572Z,19.13
2023-11-23T02:01:37.607Z,23.50
2023-11-23T02:04:04.755Z,18.27
2023-11-23T02:06:31.395Z,17.55
2023-11-23T02:08:58.084Z,23.25
2023-11-23T02:11:24.716Z,16.60
2023-11-23T02:13:53.122Z,20.73
2023-11-23T02:16:19.679Z,20.88
2023-11-23T02:18:46.559Z,19.20
2023-11-23T02:21:13.197Z,20.25
2023-11-23T02:23:40.018Z,19.00
2023-11-23T02:26:08.182Z,21.33
2023-11-23T02:28:35.132Z,21.30
2023-11-23T02:31:02.986Z,19.52
2023-11-23T02:33:29.641Z,21.02
2023-11-23T02:35:56.272Z,22.38
2023-11-23T02:38:22.914Z,20.67
2023-11-23T02:40:49.485Z,20.75
2023-11-23T02:43:17.562Z,16.13
2023-11-23T02:45:44.301Z,18.02
2023-11-23T02:48:10.992Z,20.58
2023-11-23T02:50:37.603Z,19.30
2023-11-23T02:53:04.895Z,20.73
2023-11-23T02:55:31.720Z,19.45
2023-11-23T02:57:58.411Z,22.75
2023-11-23T03:00:26.584Z,19.60
2023-11-23T03:02:53.810Z,24.02
2023-11-23T03:05:20.464Z,20.83
2023-11-23T03:07:47.062Z,20.48
2023-11-23T03:10:13.727Z,18.35
2023-11-23T03:12:40.384Z,22.42
2023-11-23T03:15:07.825Z,21.70
2023-11-23T03:20:02.358Z,20.65
2023-11-23T03:22:28.939Z,21.45
2023-11-23T03:24:56.857Z,20.67
2023-11-23T03:27:23.450Z,20.17
2023-11-23T03:29:50.086Z,22.63
2023-11-23T03:32:16.725Z,21.02
2023-11-23T03:34:45.298Z,22.90
2023-11-23T03:37:11.902Z,20.95
2023-11-23T03:39:38.497Z,23.48
2023-11-23T03:42:06.461Z,23.88
2023-11-23T03:44:33.138Z,21.98
2023-11-23T03:46:59.721Z,22.17
2023-11-23T03:49:26.317Z,28.67
2023-11-23T03:51:54.247Z,25.20
2023-11-23T03:54:20.867Z,21.67
2023-11-23T03:56:47.535Z,21.73
2023-11-23T03:59:14.261Z,21.27
2023-11-23T04:01:45.108Z,20.58
2023-11-23T04:04:12.584Z,24.83
2023-11-23T04:06:39.375Z,24.48
2023-11-23T04:09:07.733Z,29.20
2023-11-23T04:11:34.297Z,24.23
2023-11-23T04:14:00.956Z,26.48
2023-11-23T04:16:27.597Z,24.67
2023-11-23T04:18:54.239Z,26.95
2023-11-23T04:21:20.871Z,27.77
2023-11-23T04:23:47.571Z,24.30
2023-11-23T04:26:15.639Z,25.58
2023-11-23T04:28:42.180Z,23.10
2023-11-23T04:31:08.769Z,29.55
2023-11-23T04:33:35.502Z,27.95
2023-11-23T04:36:02.227Z,28.70
2023-11-23T04:38:29.102Z,31.33
2023-11-23T04:40:55.696Z,26.88
2023-11-23T04:43:23.578Z,36.10
2023-11-23T04:45:50.238Z,23.92
2023-11-23T04:48:16.977Z,22.88
2023-11-23T04:50:43.625Z,24.40
2023-11-23T04:53:10.203Z,26.75
2023-11-23T04:55:38.154Z,25.17
2023-11-23T04:58:04.768Z,31.00
2023-11-23T05:00:32.805Z,29.05
2023-11-23T05:02:59.505Z,22.90
2023-11-23T05:05:26.150Z,26.27
2023-11-23T05:07:52.793Z,23.60
2023-11-23T05:10:19.461Z,27.60
2023-11-23T05:12:46.036Z,27.58
2023-11-23T05:15:12.867Z,24.27
2023-11-23T05:17:41.016Z,28.08
2023-11-23T05:20:09.847Z,27.60
2023-11-23T05:22:36.468Z,24.13
2023-11-23T05:25:03.090Z,24.73
2023-11-23T05:27:29.738Z,24.02
2023-11-23T05:29:56.409Z,23.88
2023-11-23T05:32:23.041Z,22.88
2023-11-23T05:34:51.038Z,29.02
2023-11-23T05:37:17.557Z,25.17
2023-11-23T05:39:44.756Z,24.15
2023-11-23T05:44:38.583Z,26.50
2023-11-23T05:47:06.009Z,25.58
2023-11-23T05:52:01.108Z,20.58
2023-11-23T05:54:27.770Z,26.58
2023-11-23T05:56:54.471Z,24.65
2023-11-23T05:59:21.758Z,23.35
2023-11-23T06:01:48.473Z,25.08
2023-11-23T06:04:15.195Z,19.75
2023-11-23T06:06:41.932Z,23.15
2023-11-23T06:09:12.958Z,25.60
2023-11-23T06:11:39.747Z,33.00
2023-11-23T06:14:06.450Z,23.40
2023-11-23T06:16:33.170Z,24.75
2023-11-23T06:19:03.398Z,22.42
2023-11-23T06:21:30.713Z,22.67
2023-11-23T06:23:57.888Z,25.63
2023-11-23T06:26:26.013Z,20.50
2023-11-23T06:28:52.542Z,23.73
2023-11-23T06:31:19.363Z,21.85
2023-11-23T06:33:46.140Z,23.67
2023-11-23T06:36:12.968Z,25.98
2023-11-23T06:38:39.538Z,19.70
2023-11-23T06:41:06.578Z,24.42
2023-11-23T06:43:34.654Z,28.02
2023-11-23T06:46:01.397Z,18.30
2023-11-23T06:48:28.141Z,20.33
2023-11-23T06:50:54.804Z,22.25
2023-11-23T06:53:22.840Z,18.70
2023-11-23T06:55:49.629Z,19.92
2023-11-23T06:58:16.367Z,20.40
2023-11-23T07:00:44.647Z,22.20
2023-11-23T07:03:11.597Z,24.35
2023-11-23T07:05:38.291Z,21.52
2023-11-23T07:08:05.139Z,22.23
2023-11-23T07:10:35.042Z,24.17
2023-11-23T07:13:02.155Z,22.40
2023-11-23T07:15:30.947Z,22.25
2023-11-23T07:18:00.782Z,22.48
2023-11-23T07:20:27.739Z,23.88
2023-11-23T07:22:54.506Z,23.52
2023-11-23T07:25:21.404Z,23.98
2023-11-23T07:27:47.998Z,23.48
2023-11-23T07:30:15.393Z,21.13
2023-11-23T07:32:42.165Z,20.65
2023-11-23T07:35:10.270Z,19.42
2023-11-23T07:37:36.920Z,22.77
2023-11-23T07:40:13.918Z,21.65
2023-11-23T07:42:42.511Z,22.73
2023-11-23T07:45:10.003Z,20.58
2023-11-23T07:47:37.308Z,23.23
2023-11-23T07:50:05.154Z,23.98
2023-11-23T07:52:33.078Z,23.85
2023-11-23T07:54:59.809Z,24.60
2023-11-23T07:57:27.294Z,21.73
2023-11-23T07:59:58.803Z,23.52
2023-11-23T08:02:25.462Z,21.23
2023-11-23T08:04:52.169Z,22.45
2023-11-23T08:07:18.781Z,17.45
2023-11-23T08:09:46.781Z,22.77
2023-11-23T08:12:14.257Z,19.33
2023-11-23T08:14:40.858Z,21.35
2023-11-23T08:17:07.492Z,20.10
2023-11-23T08:19:34.150Z,18.40
2023-11-23T08:22:00.774Z,22.15
2023-11-23T08:24:27.413Z,19.75
2023-11-23T08:26:55.752Z,18.95
2023-11-23T08:29:22.444Z,17.63
2023-11-23T08:31:49.528Z,21.05
2023-11-23T08:34:16.215Z,23.27
2023-11-23T08:36:43.100Z,16.73
2023-11-23T08:39:13.509Z,18.67
2023-11-23T08:41:40.387Z,20.52
2023-11-23T08:44:08.491Z,16.38
2023-11-23T08:46:35.366Z,19.85
2023-11-23T08:49:02.260Z,18.85
2023-11-23T08:51:30.824Z,17.98
2023-11-23T08:53:57.638Z,14.90
2023-11-23T08:56:24.301Z,16.58
2023-11-23T08:58:51.225Z,15.75
2023-11-23T09:01:19.205Z,13.52
2023-11-23T09:03:46.137Z,16.30
2023-11-23T09:06:14.797Z,14.75
2023-11-23T09:08:41.657Z,13.45
2023-11-23T09:11:08.451Z,15.32
2023-11-23T09:13:35.026Z,13.63
2023-11-23T09:16:01.825Z,14.40
2023-11-23T09:18:29.913Z,17.05
2023-11-23T09:20:58.704Z,14.27
2023-11-23T09:23:28.563Z,15.38
2023-11-23T09:25:55.278Z,11.75
2023-11-23T09:28:23.006Z,15.57
2023-11-23T09:30:49.712Z,14.05
2023-11-23T09:33:19.969Z,13.93
2023-11-23T09:35:48.683Z,11.80
2023-11-23T09:38:15.848Z,12.60
2023-11-23T09:40:42.471Z,16.20
2023-11-23T09:43:10.508Z,14.05
2023-11-23T09:45:37.508Z,10.63
2023-11-23T09:48:07.734Z,14.75
2023-11-23T09:50:37.982Z,13.77
2023-11-23T09:53:09.242Z,13.50
2023-11-23T09:55:35.994Z,12.70
2023-11-23T09:58:05.841Z,12.52
2023-11-23T10:00:36.882Z,13.20
2023-11-23T10:03:08.197Z,11.60
2023-11-23T10:05:35.155Z,9.40
2023-11-23T10:08:01.735Z,10.05
2023-11-23T10:10:30.872Z,11.25
2023-11-23T10:12:57.591Z,9.63
2023-11-23T10:15:26.305Z,11.75
2023-11-23T10:17:53.123Z,7.63
2023-11-23T10:20:19.958Z,7.07
2023-11-23T10:22:48.222Z,8.50
2023-11-23T10:25:32.910Z,10.15
2023-11-23T10:28:01.397Z,6.35
2023-11-23T10:30:29.333Z,7.07
2023-11-23T10:32:56.757Z,10.93
2023-11-23T10:37:54.175Z,9.25
2023-11-23T10:40:22.235Z,7.38
2023-11-23T10:42:50.107Z,7.45
2023-11-23T10:45:18.759Z,10.32
2023-11-23T10:47:48.334Z,6.93
2023-11-23T10:50:16.993Z,13.98
2023-11-23T10:52:45.121Z,8.32
2023-11-23T10:55:11.866Z,7.55
2023-11-23T10:57:39.592Z,7.32
2023-11-23T11:00:12.825Z,9.35
2023-11-23T11:02:41.409Z,7.22
2023-11-23T11:05:21.247Z,9.70
2023-11-23T11:07:55.129Z,8.98
2023-11-23T11:10:21.696Z,9.38
2023-11-23T11:12:48.580Z,9.02
2023-11-23T11:15:18.507Z,8.45
2023-11-23T11:17:48.147Z,8.20
2023-11-23T11:20:23.376Z,7.55
2023-11-23T11:22:56.663Z,7.75
2023-11-23T11:25:23.465Z,7.40
2023-11-23T11:27:51.124Z,10.88
2023-11-23T11:30:26.014Z,7.68
2023-11-23T11:32:54.652Z,5.63
2023-11-23T11:35:21.731Z,5.35
2023-11-23T11:37:48.390Z,8.45
2023-11-23T11:40:16.950Z,6.07
2023-11-23T11:42:44.043Z,4.95
2023-11-23T11:45:13.639Z,5.72
2023-11-23T11:47:40.392Z,5.93
2023-11-23T11:50:10.136Z,6.03
2023-11-23T11:52:38.210Z,4.43
2023-11-23T11:55:06.458Z,7.57
2023-11-23T11:57:40.020Z,4.03
2023-11-23T12:00:08.714Z,6.22
2023-11-23T12:02:35.573Z,7.63
2023-11-23T12:05:02.826Z,7.18
2023-11-23T12:07:30.756Z,5.88
2023-11-23T12:09:57.541Z,6.30
2023-11-23T12:12:24.282Z,4.97
2023-11-23T12:14:51.121Z,5.90
2023-11-23T12:17:18.289Z,4.97
2023-11-23T12:19:54.378Z,6.60
2023-11-23T12:22:22.403Z,4.28
2023-11-23T12:24:50.664Z,6.78
2023-11-23T12:27:17.864Z,4.93
2023-11-23T12:32:11.538Z,4.97
2023-11-23T12:34:38.094Z,3.90
2023-11-23T12:37:05.146Z,7.05
2023-11-23T12:39:31.796Z,9.07
2023-11-23T12:41:59.812Z,3.35
2023-11-23T12:44:26.530Z,4.50
2023-11-23T12:46:53.495Z,3.92
2023-11-23T12:49:21.036Z,4.38
2023-11-23T12:51:47.712Z,2.97
2023-11-23T12:54:15.989Z,6.78
2023-11-23T12:56:42.944Z,6.70
2023-11-23T12:59:11.384Z,4.10
2023-11-23T13:01:39.613Z,4.28
2023-11-23T13:04:08.883Z,3.47
2023-11-23T13:06:36.184Z,3.90
2023-11-23T13:09:03.786Z,3.53
2023-11-23T13:11:30.393Z,5.00
2023-11-23T13:13:57.019Z,6.68
2023-11-23T13:16:25.362Z,6.03
2023-11-23T13:19:06.333Z,4.93
2023-11-23T13:21:39.548Z,5.45
2023-11-23T13:24:07.993Z,3.90
2023-11-23T13:26:35.124Z,3.20
2023-11-23T13:29:01.881Z,7.18
2023-11-23T13:31:29.856Z,6.07
2023-11-23T13:33:57.038Z,6.45
2023-11-23T13:36:23.942Z,6.93
2023-11-23T13:38:51.604Z,7.28
2023-11-23T13:41:19.635Z,5.30
2023-11-23T13:43:46.408Z,3.83
2023-11-23T13:46:13.813Z,4.85
2023-11-23T13:48:41.955Z,5.30
2023-11-23T13:51:09.553Z,5.03
2023-11-23T13:53:36.201Z,5.50
2023-11-23T13:56:02.859Z,3.78
2023-11-23T13:58:31.095Z,4.13
2023-11-23T14:00:57.625Z,7.22
2023-11-23T14:03:24.563Z,7.32
2023-11-23T14:05:53.600Z,9.20
2023-11-23T14:08:22.084Z,6.40
2023-11-23T14:10:48.736Z,11.00
2023-11-23T14:13:15.588Z,8.07
2023-11-23T14:15:42.412Z,5.65
2023-11-23T14:18:11.750Z,6.78
2023-11-23T14:20:38.907Z,7.78
2023-11-23T14:23:06.828Z,7.15
2023-11-23T14:25:33.427Z,4.72
2023-11-23T14:28:00.528Z,8.55
2023-11-23T14:30:28.700Z,4.45
2023-11-23T14:32:55.382Z,7.32
2023-11-23T14:35:22.690Z,8.40
2023-11-23T14:37:51.184Z,5.82
2023-11-23T14:40:20.300Z,5.63
2023-11-23T14:42:56.134Z,9.50
2023-11-23T14:45:24.504Z,8.65
2023-11-23T14:47:52.754Z,9.90
2023-11-23T14:50:20.751Z,4.50
2023-11-23T14:52:47.382Z,4.43
2023-11-23T14:55:17.776Z,6.28
2023-11-23T14:57:45.882Z,11.88
2023-11-23T15:00:14.169Z,6.80
2023-11-23T15:02:42.972Z,5.10
2023-11-23T15:05:13.530Z,6.50
2023-11-23T15:07:40.765Z,8.35
2023-11-23T15:10:12.872Z,6.88
2023-11-23T15:12:40.169Z,9.10
2023-11-23T15:15:08.874Z,5.25
2023-11-23T15:17:37.353Z,3.75
2023-11-23T15:20:07.096Z,6.93
2023-11-23T15:22:34.571Z,5.18
2023-11-23T15:25:08.414Z,4.18
2023-11-23T15:27:37.409Z,4.85
2023-11-23T15:30:05.988Z,4.72
2023-11-23T15:32:38.745Z,7.57
2023-11-23T15:35:07.468Z,7.45
2023-11-23T15:37:34.107Z,9.43
2023-11-23T15:40:00.711Z,4.78
2023-11-23T15:42:27.964Z,7.32
2023-11-23T15:44:54.621Z,8.00
2023-11-23T15:47:21.258Z,18.42
2023-11-23T15:49:49.155Z,8.77
2023-11-23T15:52:15.770Z,8.43
2023-11-23T15:54:42.387Z,55.08
2023-11-23T15:57:09.053Z,8.25
2023-11-23T15:59:37.134Z,5.38
2023-11-23T16:02:04.912Z,5.57
2023-11-23T16:04:31.740Z,6.07
2023-11-23T16:07:01.750Z,5.53
2023-11-23T16:09:28.748Z,4.47
2023-11-23T16:11:55.346Z,5.63
2023-11-23T16:14:22.482Z,5.57
2023-11-23T16:16:49.096Z,8.75
2023-11-23T16:19:15.841Z,7.35
2023-11-23T16:21:42.469Z,8.48
2023-11-23T16:24:15.089Z,7.22
2023-11-23T16:26:43.134Z,5.90
2023-11-23T16:29:11.745Z,11.02
2023-11-23T16:31:43.268Z,8.77
2023-11-23T16:34:10.419Z,7.10
2023-11-23T16:36:40.014Z,8.32
2023-11-23T16:39:08.481Z,6.22
2023-11-23T16:41:36.714Z,20.67
2023-11-23T16:44:03.454Z,6.88
2023-11-23T16:46:30.053Z,9.55
2023-11-23T16:48:56.835Z,8.68
2023-11-23T16:51:25.882Z,10.98
2023-11-23T16:53:55.331Z,8.30
2023-11-23T16:56:22.243Z,10.00
2023-11-23T16:58:50.426Z,10.13
2023-11-23T17:01:18.281Z,10.50
2023-11-23T17:03:44.932Z,10.57
2023-11-23T17:06:12.729Z,8.45
2023-11-23T17:08:40.845Z,7.47
2023-11-23T17:11:10.383Z,9.57
2023-11-23T17:13:37.462Z,9.20
2023-11-23T17:16:06.900Z,9.55
2023-11-23T17:18:33.592Z,10.35
2023-11-23T17:21:00.239Z,12.43
2023-11-23T17:23:26.819Z,12.23
2023-11-23T17:25:53.444Z,10.75
2023-11-23T17:28:24.344Z,13.68
2023-11-23T17:30:54.956Z,11.50
2023-11-23T17:33:24.471Z,9.57
2023-11-23T17:35:53.119Z,9.13
2023-11-23T17:38:20.006Z,9.73
2023-11-23T17:40:46.727Z,10.48
2023-11-23T17:43:13.424Z,9.52
2023-11-23T17:45:41.392Z,10.98
2023-11-23T17:48:09.045Z,8.23
2023-11-23T17:50:40.161Z,9.98
2023-11-23T17:53:07.460Z,11.43
2023-11-23T17:55:34.536Z,10.80
2023-11-23T18:00:31.626Z,8.80
2023-11-23T18:02:58.906Z,8.32
2023-11-23T18:07:53.555Z,7.43
2023-11-23T18:10:21.279Z,8.88
2023-11-23T18:12:47.901Z,9.65
2023-11-23T18:15:15.155Z,9.35
2023-11-23T18:17:43.093Z,10.82
2023-11-23T18:20:12.862Z,10.40
2023-11-23T18:22:39.839Z,8.88
2023-11-23T18:25:08.392Z,7.90
2023-11-23T18:27:35.354Z,10.63
2023-11-23T18:30:01.996Z,9.57
2023-11-23T18:32:30.649Z,8.70
2023-11-23T18:34:57.317Z,10.10
2023-11-23T18:37:23.894Z,8.70
2023-11-23T18:39:50.609Z,9.35
2023-11-23T18:42:18.604Z,7.97
2023-11-23T18:44:45.257Z,7.40
2023-11-23T18:47:12.399Z,14.02
2023-11-23T18:52:06.148Z,10.07
2023-11-23T18:56:59.305Z,9.38
2023-11-23T18:59:27.210Z,9.82
2023-11-23T19:01:55.535Z,12.15
2023-11-23T19:04:23.472Z,14.25
2023-11-23T19:06:53.316Z,12.40
2023-11-23T19:09:22.919Z,9.52
2023-11-23T19:11:50.452Z,12.20
2023-11-23T19:14:17.063Z,9.48
2023-11-23T19:16:45.052Z,9.02
2023-11-23T19:19:12.960Z,10.57
2023-11-23T19:21:40.306Z,12.40
2023-11-23T19:24:08.965Z,11.85
2023-11-23T19:26:36.741Z,9.25
2023-11-23T19:29:04.242Z,9.88
2023-11-23T19:31:32.385Z,13.40
2023-11-23T19:34:01.743Z,9.60
2023-11-23T19:36:29.112Z,13.10
2023-11-23T19:38:56.335Z,11.80
2023-11-23T19:41:23.699Z,13.30
2023-11-23T19:43:50.854Z,11.00
2023-11-23T19:46:18.148Z,12.38
2023-11-23T19:51:14.552Z,12.13
2023-11-23T19:53:44.132Z,12.68
2023-11-23T19:56:10.747Z,12.07
2023-11-23T19:58:38.513Z,11.77
2023-11-23T20:01:05.624Z,10.90
2023-11-23T20:03:33.631Z,16.08
2023-11-23T20:06:01.945Z,13.18
2023-11-23T20:08:32.322Z,12.45
2023-11-23T20:10:59.477Z,13.23
2023-11-23T20:13:26.062Z,11.90
2023-11-23T20:15:52.825Z,12.30
2023-11-23T20:18:19.559Z,12.73
2023-11-23T20:20:46.118Z,13.63
2023-11-23T20:23:13.390Z,11.82
2023-11-23T20:25:41.326Z,13.68
2023-11-23T20:28:10.876Z,12.95
2023-11-23T20:30:37.534Z,11.65
2023-11-23T20:33:04.126Z,8.05
2023-11-23T20:35:30.707Z,13.05
2023-11-23T20:37:57.418Z,14.25
2023-11-23T20:40:24.247Z,16.42
2023-11-23T20:42:52.237Z,13.95
2023-11-23T20:45:19.008Z,12.27
2023-11-23T20:47:45.984Z,15.43
2023-11-23T20:50:12.793Z,12.93
2023-11-23T20:52:40.530Z,11.90
2023-11-23T20:55:09.774Z,12.85
2023-11-23T20:57:37.055Z,14.25
2023-11-23T21:02:36.629Z,10.65
2023-11-23T21:05:05.662Z,11.15
2023-11-23T21:07:33.153Z,12.05
2023-11-23T21:10:01.253Z,14.60
2023-11-23T21:12:28.114Z,13.00
2023-11-23T21:14:54.885Z,10.13
2023-11-23T21:17:23.126Z,12.85
2023-11-23T21:19:49.767Z,13.23
2023-11-23T21:22:16.540Z,9.82
2023-11-23T21:24:45.394Z,16.38
2023-11-23T21:27:12.506Z,14.13
2023-11-23T21:29:39.366Z,18.73
2023-11-23T21:32:07.023Z,12.73
2023-11-23T21:34:34.983Z,8.23
2023-11-23T21:37:01.567Z,10.90
2023-11-23T21:39:29.623Z,13.60
2023-11-23T21:41:56.564Z,13.88
2023-11-23T21:44:23.129Z,11.48
2023-11-23T21:46:49.889Z,11.30
2023-11-23T21:49:16.548Z,13.30
2023-11-23T21:51:46.618Z,14.88
2023-11-23T21:54:13.310Z,10.57
2023-11-23T21:56:40.140Z,13.77
2023-11-23T21:59:06.801Z,12.15
2023-11-23T22:01:34.960Z,9.82
2023-11-23T22:04:04.545Z,13.10
2023-11-23T22:06:31.205Z,11.85
2023-11-23T22:08:59.251Z,13.20
2023-11-23T22:11:25.827Z,11.48
2023-11-23T22:13:52.443Z,14.43
2023-11-23T22:16:19.056Z,14.68
2023-11-23T22:18:46.217Z,13.35
2023-11-23T22:21:13.768Z,14.82
2023-11-23T22:23:40.722Z,16.38
2023-11-23T22:26:09.827Z,15.20
2023-11-23T22:28:37.001Z,14.40
2023-11-23T22:31:10.029Z,14.52
2023-11-23T22:33:37.483Z,16.17
2023-11-23T22:36:04.726Z,12.63
2023-11-23T22:38:32.092Z,14.88
2023-11-23T22:40:59.521Z,14.00
2023-11-23T22:43:28.242Z,9.27
2023-11-23T22:45:55.352Z,11.30
2023-11-23T22:48:24.384Z,9.60
2023-11-23T22:50:50.980Z,11.77
2023-11-23T22:53:17.602Z,12.40
2023-11-23T22:55:44.605Z,9.60
2023-11-23T22:58:11.186Z,10.25
2023-11-23T23:00:39.645Z,12.00
2023-11-23T23:03:06.405Z,12.77
2023-11-23T23:05:33.265Z,10.60
2023-11-23T23:07:59.971Z,12.00
2023-11-23T23:10:28.200Z,8.52
2023-11-23T23:12:55.199Z,11.00
2023-11-23T23:15:22.506Z,9.65
2023-11-23T23:20:19.453Z,9.10
2023-11-23T23:22:46.402Z,11.05
2023-11-23T23:25:13.770Z,12.48
2023-11-23T23:30:10.364Z,10.95
2023-11-23T23:32:40.377Z,12.52
2023-11-23T23:35:12.557Z,11.52
2023-11-23T23:37:39.762Z,15.00
2023-11-23T23:40:07.756Z,18.13
2023-11-23T23:42:34.467Z,11.23
2023-11-23T23:45:01.082Z,14.98
2023-11-23T23:47:27.810Z,10.52
2023-11-23T23:49:55.040Z,17.75
2023-11-23T23:52:23.393Z,10.52
2023-11-23T23:54:50.030Z,14.10
2023-11-23T23:57:16.999Z,11.38
2023-11-23T23:59:43.614Z,12.05
